sensor_id;sensor_type;location;lat;lon;timestamp;P1;durP1;ratioP1;P2;durP2;ratioP2
71869;SDS011;59739;47.696;11.746;2022-07-01T00:00:03;3.78;;;2.60;;
71869;SDS011;59739;47.696;11.746;2022-07-01T00:02:38;6.15;;;2.42;;
71869;SDS011;59739;47.696;11.746;2022-07-01T00:05:04;5.60;;;2.80;;
71869;SDS011;59739;47.696;11.746;2022-07-01T00:07:57;2.40;;;2.20;;
71869;SDS011;59739;47.696;11.746;2022-07-01T00:10:23;3.13;;;2.38;;
71869;SDS011;59739;47.696;11.746;2022-07-01T00:12:48;3.28;;;2.42;;
71869;SDS011;59739;47.696;11.746;2022-07-01T00:15:14;3.45;;;2.60;;
71869;SDS011;59739;47.696;11.746;2022-07-01T00:17:40;3.20;;;2.30;;
71869;SDS011;59739;47.696;11.746;2022-07-01T00:20:08;3.25;;;2.30;;
71869;SDS011;59739;47.696;11.746;2022-07-01T00:22:36;3.10;;;2.33;;
71869;SDS011;59739;47.696;11.746;2022-07-01T00:25:02;3.90;;;2.15;;
71869;SDS011;59739;47.696;11.746;2022-07-01T00:27:29;2.60;;;2.40;;
71869;SDS011;59739;47.696;11.746;2022-07-01T00:29:55;3.10;;;2.33;;
71869;SDS011;59739;47.696;11.746;2022-07-01T00:32:21;2.83;;;2.17;;
71869;SDS011;59739;47.696;11.746;2022-07-01T00:34:46;2.00;;;1.90;;
71869;SDS011;59739;47.696;11.746;2022-07-01T00:37:12;1.80;;;1.70;;
71869;SDS011;59739;47.696;11.746;2022-07-01T00:39:38;3.78;;;1.50;;
71869;SDS011;59739;47.696;11.746;2022-07-01T00:42:04;1.38;;;1.27;;
71869;SDS011;59739;47.696;11.746;2022-07-01T00:44:31;2.67;;;1.27;;
71869;SDS011;59739;47.696;11.746;2022-07-01T00:46:58;1.40;;;1.30;;
71869;SDS011;59739;47.696;11.746;2022-07-01T00:49:27;1.90;;;0.90;;
71869;SDS011;59739;47.696;11.746;2022-07-01T00:51:55;1.70;;;1.10;;
71869;SDS011;59739;47.696;11.746;2022-07-01T00:54:22;1.10;;;1.00;;
71869;SDS011;59739;47.696;11.746;2022-07-01T00:56:49;2.50;;;0.80;;
71869;SDS011;59739;47.696;11.746;2022-07-01T00:59:15;2.17;;;1.17;;
71869;SDS011;59739;47.696;11.746;2022-07-01T01:01:41;0.60;;;0.60;;
71869;SDS011;59739;47.696;11.746;2022-07-01T01:04:07;0.90;;;0.80;;
71869;SDS011;59739;47.696;11.746;2022-07-01T01:06:33;0.98;;;0.80;;
71869;SDS011;59739;47.696;11.746;2022-07-01T01:08:59;0.85;;;0.75;;
71869;SDS011;59739;47.696;11.746;2022-07-01T01:11:26;0.75;;;0.75;;
71869;SDS011;59739;47.696;11.746;2022-07-01T01:13:52;1.38;;;0.80;;
71869;SDS011;59739;47.696;11.746;2022-07-01T01:16:18;1.98;;;0.70;;
71869;SDS011;59739;47.696;11.746;2022-07-01T01:18:46;1.15;;;0.93;;
71869;SDS011;59739;47.696;11.746;2022-07-01T01:21:13;0.93;;;0.80;;
71869;SDS011;59739;47.696;11.746;2022-07-01T01:23:40;0.80;;;0.80;;
71869;SDS011;59739;47.696;11.746;2022-07-01T01:26:16;1.25;;;1.08;;
71869;SDS011;59739;47.696;11.746;2022-07-01T01:28:44;0.80;;;0.80;;
71869;SDS011;59739;47.696;11.746;2022-07-01T01:31:11;0.80;;;0.70;;
71869;SDS011;59739;47.696;11.746;2022-07-01T01:33:38;1.00;;;0.90;;
71869;SDS011;59739;47.696;11.746;2022-07-01T01:36:04;0.80;;;0.77;;
71869;SDS011;59739;47.696;11.746;2022-07-01T01:38:35;1.23;;;1.13;;
71869;SDS011;59739;47.696;11.746;2022-07-01T01:41:02;1.58;;;0.82;;
71869;SDS011;59739;47.696;11.746;2022-07-01T01:43:29;0.80;;;0.80;;
71869;SDS011;59739;47.696;11.746;2022-07-01T01:45:58;0.73;;;0.73;;
71869;SDS011;59739;47.696;11.746;2022-07-01T01:48:26;0.75;;;0.75;;
71869;SDS011;59739;47.696;11.746;2022-07-01T01:50:53;0.98;;;0.88;;
71869;SDS011;59739;47.696;11.746;2022-07-01T01:53:19;1.02;;;0.85;;
71869;SDS011;59739;47.696;11.746;2022-07-01T01:55:45;0.88;;;0.88;;
71869;SDS011;59739;47.696;11.746;2022-07-01T01:58:11;0.80;;;0.77;;
71869;SDS011;59739;47.696;11.746;2022-07-01T02:00:37;0.52;;;0.52;;
71869;SDS011;59739;47.696;11.746;2022-07-01T02:03:03;0.65;;;0.65;;
71869;SDS011;59739;47.696;11.746;2022-07-01T02:05:29;0.70;;;0.70;;
71869;SDS011;59739;47.696;11.746;2022-07-01T02:07:55;0.60;;;0.60;;
71869;SDS011;59739;47.696;11.746;2022-07-01T02:10:21;0.75;;;0.75;;
71869;SDS011;59739;47.696;11.746;2022-07-01T02:12:47;0.80;;;0.80;;
71869;SDS011;59739;47.696;11.746;2022-07-01T02:15:13;1.02;;;0.85;;
71869;SDS011;59739;47.696;11.746;2022-07-01T02:17:39;0.70;;;0.70;;
71869;SDS011;59739;47.696;11.746;2022-07-01T02:20:05;0.55;;;0.50;;
71869;SDS011;59739;47.696;11.746;2022-07-01T02:22:32;0.57;;;0.57;;
71869;SDS011;59739;47.696;11.746;2022-07-01T02:24:58;0.65;;;0.60;;
71869;SDS011;59739;47.696;11.746;2022-07-01T02:27:23;0.70;;;0.60;;
71869;SDS011;59739;47.696;11.746;2022-07-01T02:29:49;0.50;;;0.50;;
71869;SDS011;59739;47.696;11.746;2022-07-01T02:32:15;0.60;;;0.60;;
71869;SDS011;59739;47.696;11.746;2022-07-01T02:34:41;0.50;;;0.50;;
71869;SDS011;59739;47.696;11.746;2022-07-01T02:37:07;0.70;;;0.70;;
71869;SDS011;59739;47.696;11.746;2022-07-01T02:39:33;1.45;;;0.70;;
71869;SDS011;59739;47.696;11.746;2022-07-01T02:41:59;0.70;;;0.68;;
71869;SDS011;59739;47.696;11.746;2022-07-01T02:44:43;0.82;;;0.70;;
71869;SDS011;59739;47.696;11.746;2022-07-01T02:47:09;0.93;;;0.80;;
71869;SDS011;59739;47.696;11.746;2022-07-01T02:49:36;0.85;;;0.70;;
71869;SDS011;59739;47.696;11.746;2022-07-01T02:52:04;4.97;;;1.35;;
71869;SDS011;59739;47.696;11.746;2022-07-01T02:54:30;0.98;;;0.75;;
71869;SDS011;59739;47.696;11.746;2022-07-01T02:56:56;0.90;;;0.90;;
71869;SDS011;59739;47.696;11.746;2022-07-01T02:59:22;1.38;;;0.90;;
71869;SDS011;59739;47.696;11.746;2022-07-01T03:01:48;1.40;;;0.85;;
71869;SDS011;59739;47.696;11.746;2022-07-01T03:04:14;1.17;;;0.80;;
71869;SDS011;59739;47.696;11.746;2022-07-01T03:06:40;1.90;;;0.70;;
71869;SDS011;59739;47.696;11.746;2022-07-01T03:09:06;1.35;;;1.10;;
71869;SDS011;59739;47.696;11.746;2022-07-01T03:11:32;1.20;;;1.05;;
71869;SDS011;59739;47.696;11.746;2022-07-01T03:13:58;1.67;;;1.35;;
71869;SDS011;59739;47.696;11.746;2022-07-01T03:16:24;1.70;;;1.45;;
71869;SDS011;59739;47.696;11.746;2022-07-01T03:18:50;1.05;;;0.95;;
71869;SDS011;59739;47.696;11.746;2022-07-01T03:21:16;1.77;;;1.30;;
71869;SDS011;59739;47.696;11.746;2022-07-01T03:23:42;1.30;;;1.20;;
71869;SDS011;59739;47.696;11.746;2022-07-01T03:26:08;3.28;;;1.58;;
71869;SDS011;59739;47.696;11.746;2022-07-01T03:28:33;4.57;;;1.13;;
71869;SDS011;59739;47.696;11.746;2022-07-01T03:31:00;1.73;;;0.93;;
71869;SDS011;59739;47.696;11.746;2022-07-01T03:33:26;1.30;;;1.20;;
71869;SDS011;59739;47.696;11.746;2022-07-01T03:35:52;1.45;;;0.98;;
71869;SDS011;59739;47.696;11.746;2022-07-01T03:38:19;1.08;;;0.95;;
71869;SDS011;59739;47.696;11.746;2022-07-01T03:40:44;3.25;;;1.30;;
71869;SDS011;59739;47.696;11.746;2022-07-01T03:43:11;3.58;;;1.27;;
71869;SDS011;59739;47.696;11.746;2022-07-01T03:45:37;2.80;;;1.20;;
71869;SDS011;59739;47.696;11.746;2022-07-01T03:48:04;1.77;;;1.30;;
71869;SDS011;59739;47.696;11.746;2022-07-01T03:50:31;1.42;;;1.20;;
71869;SDS011;59739;47.696;11.746;2022-07-01T03:52:57;1.30;;;1.20;;
71869;SDS011;59739;47.696;11.746;2022-07-01T03:55:42;1.23;;;1.13;;
71869;SDS011;59739;47.696;11.746;2022-07-01T03:58:08;1.27;;;1.10;;
71869;SDS011;59739;47.696;11.746;2022-07-01T04:00:35;1.27;;;1.02;;
71869;SDS011;59739;47.696;11.746;2022-07-01T04:03:02;0.95;;;0.85;;
71869;SDS011;59739;47.696;11.746;2022-07-01T04:05:31;1.48;;;1.38;;
71869;SDS011;59739;47.696;11.746;2022-07-01T04:08:00;1.50;;;1.40;;
71869;SDS011;59739;47.696;11.746;2022-07-01T04:10:29;1.42;;;1.33;;
71869;SDS011;59739;47.696;11.746;2022-07-01T04:13:00;1.30;;;1.20;;
71869;SDS011;59739;47.696;11.746;2022-07-01T04:15:27;2.47;;;1.30;;
71869;SDS011;59739;47.696;11.746;2022-07-01T04:17:53;5.00;;;1.80;;
71869;SDS011;59739;47.696;11.746;2022-07-01T04:20:19;1.70;;;1.27;;
71869;SDS011;59739;47.696;11.746;2022-07-01T04:22:45;2.63;;;1.58;;
71869;SDS011;59739;47.696;11.746;2022-07-01T04:25:12;2.40;;;1.70;;
71869;SDS011;59739;47.696;11.746;2022-07-01T04:27:38;3.15;;;1.75;;
71869;SDS011;59739;47.696;11.746;2022-07-01T04:30:04;2.30;;;1.45;;
71869;SDS011;59739;47.696;11.746;2022-07-01T04:32:30;1.60;;;1.50;;
71869;SDS011;59739;47.696;11.746;2022-07-01T04:34:56;3.40;;;1.40;;
71869;SDS011;59739;47.696;11.746;2022-07-01T04:37:23;2.03;;;1.45;;
71869;SDS011;59739;47.696;11.746;2022-07-01T04:39:49;1.95;;;1.50;;
71869;SDS011;59739;47.696;11.746;2022-07-01T04:42:14;2.03;;;1.60;;
71869;SDS011;59739;47.696;11.746;2022-07-01T04:44:42;3.35;;;2.50;;
71869;SDS011;59739;47.696;11.746;2022-07-01T04:47:09;3.20;;;2.38;;
71869;SDS011;59739;47.696;11.746;2022-07-01T04:49:35;4.93;;;1.90;;
71869;SDS011;59739;47.696;11.746;2022-07-01T04:52:01;2.05;;;1.20;;
71869;SDS011;59739;47.696;11.746;2022-07-01T04:54:27;1.55;;;1.38;;
71869;SDS011;59739;47.696;11.746;2022-07-01T04:56:53;2.78;;;1.30;;
71869;SDS011;59739;47.696;11.746;2022-07-01T04:59:19;2.25;;;1.30;;
71869;SDS011;59739;47.696;11.746;2022-07-01T05:01:45;1.50;;;1.25;;
71869;SDS011;59739;47.696;11.746;2022-07-01T05:04:15;1.67;;;1.30;;
71869;SDS011;59739;47.696;11.746;2022-07-01T05:06:43;1.55;;;1.30;;
71869;SDS011;59739;47.696;11.746;2022-07-01T05:09:09;2.60;;;1.30;;
71869;SDS011;59739;47.696;11.746;2022-07-01T05:11:36;1.75;;;1.48;;
71869;SDS011;59739;47.696;11.746;2022-07-01T05:14:03;3.28;;;2.95;;
71869;SDS011;59739;47.696;11.746;2022-07-01T05:16:31;2.10;;;1.23;;
71869;SDS011;59739;47.696;11.746;2022-07-01T05:18:57;2.35;;;1.52;;
71869;SDS011;59739;47.696;11.746;2022-07-01T05:21:42;2.42;;;1.50;;
71869;SDS011;59739;47.696;11.746;2022-07-01T05:24:30;2.13;;;1.50;;
71869;SDS011;59739;47.696;11.746;2022-07-01T05:26:57;2.35;;;1.75;;
71869;SDS011;59739;47.696;11.746;2022-07-01T05:29:25;1.73;;;1.30;;
71869;SDS011;59739;47.696;11.746;2022-07-01T05:31:51;1.60;;;1.50;;
71869;SDS011;59739;47.696;11.746;2022-07-01T05:34:17;1.80;;;1.13;;
71869;SDS011;59739;47.696;11.746;2022-07-01T05:36:43;1.38;;;1.20;;
71869;SDS011;59739;47.696;11.746;2022-07-01T05:39:09;1.52;;;1.20;;
71869;SDS011;59739;47.696;11.746;2022-07-01T05:41:34;1.77;;;1.30;;
71869;SDS011;59739;47.696;11.746;2022-07-01T05:44:00;2.10;;;1.70;;
71869;SDS011;59739;47.696;11.746;2022-07-01T05:46:26;2.95;;;2.22;;
71869;SDS011;59739;47.696;11.746;2022-07-01T05:48:52;5.80;;;5.20;;
71869;SDS011;59739;47.696;11.746;2022-07-01T05:51:18;2.05;;;1.55;;
71869;SDS011;59739;47.696;11.746;2022-07-01T05:53:44;1.80;;;1.52;;
71869;SDS011;59739;47.696;11.746;2022-07-01T05:56:12;2.35;;;1.52;;
71869;SDS011;59739;47.696;11.746;2022-07-01T05:58:39;6.60;;;2.08;;
71869;SDS011;59739;47.696;11.746;2022-07-01T06:01:05;2.55;;;1.30;;
71869;SDS011;59739;47.696;11.746;2022-07-01T06:03:31;2.53;;;1.20;;
71869;SDS011;59739;47.696;11.746;2022-07-01T06:05:56;1.40;;;1.13;;
71869;SDS011;59739;47.696;11.746;2022-07-01T06:08:22;2.97;;;1.45;;
71869;SDS011;59739;47.696;11.746;2022-07-01T06:10:48;2.22;;;1.30;;
71869;SDS011;59739;47.696;11.746;2022-07-01T06:13:14;1.63;;;1.40;;
71869;SDS011;59739;47.696;11.746;2022-07-01T06:15:41;1.38;;;1.27;;
71869;SDS011;59739;47.696;11.746;2022-07-01T06:18:07;3.25;;;1.35;;
71869;SDS011;59739;47.696;11.746;2022-07-01T06:20:33;1.33;;;1.23;;
71869;SDS011;59739;47.696;11.746;2022-07-01T06:22:59;1.40;;;1.30;;
71869;SDS011;59739;47.696;11.746;2022-07-01T06:25:25;2.70;;;1.40;;
71869;SDS011;59739;47.696;11.746;2022-07-01T06:27:51;1.52;;;1.20;;
71869;SDS011;59739;47.696;11.746;2022-07-01T06:30:17;1.70;;;1.40;;
71869;SDS011;59739;47.696;11.746;2022-07-01T06:32:43;1.10;;;1.00;;
71869;SDS011;59739;47.696;11.746;2022-07-01T06:35:09;1.15;;;1.05;;
71869;SDS011;59739;47.696;11.746;2022-07-01T06:37:35;1.50;;;1.08;;
71869;SDS011;59739;47.696;11.746;2022-07-01T06:40:05;1.20;;;1.10;;
71869;SDS011;59739;47.696;11.746;2022-07-01T06:42:32;1.10;;;1.00;;
71869;SDS011;59739;47.696;11.746;2022-07-01T06:44:59;1.42;;;1.30;;
71869;SDS011;59739;47.696;11.746;2022-07-01T06:47:26;1.73;;;0.90;;
71869;SDS011;59739;47.696;11.746;2022-07-01T06:49:52;2.30;;;1.45;;
71869;SDS011;59739;47.696;11.746;2022-07-01T06:52:18;1.40;;;1.30;;
71869;SDS011;59739;47.696;11.746;2022-07-01T06:54:44;1.30;;;1.20;;
71869;SDS011;59739;47.696;11.746;2022-07-01T06:57:10;1.35;;;1.25;;
71869;SDS011;59739;47.696;11.746;2022-07-01T06:59:36;1.85;;;1.33;;
71869;SDS011;59739;47.696;11.746;2022-07-01T07:02:02;2.55;;;1.30;;
71869;SDS011;59739;47.696;11.746;2022-07-01T07:04:31;2.65;;;1.33;;
71869;SDS011;59739;47.696;11.746;2022-07-01T07:06:57;1.65;;;1.20;;
71869;SDS011;59739;47.696;11.746;2022-07-01T07:09:22;1.98;;;1.00;;
71869;SDS011;59739;47.696;11.746;2022-07-01T07:11:48;1.25;;;0.82;;
71869;SDS011;59739;47.696;11.746;2022-07-01T07:14:15;0.88;;;0.80;;
71869;SDS011;59739;47.696;11.746;2022-07-01T07:16:41;1.15;;;1.00;;
71869;SDS011;59739;47.696;11.746;2022-07-01T07:19:07;2.45;;;1.10;;
71869;SDS011;59739;47.696;11.746;2022-07-01T07:21:32;1.10;;;1.00;;
71869;SDS011;59739;47.696;11.746;2022-07-01T07:23:58;0.95;;;0.90;;
71869;SDS011;59739;47.696;11.746;2022-07-01T07:26:24;4.90;;;1.10;;
71869;SDS011;59739;47.696;11.746;2022-07-01T07:28:50;1.20;;;1.10;;
71869;SDS011;59739;47.696;11.746;2022-07-01T07:31:16;2.08;;;1.30;;
71869;SDS011;59739;47.696;11.746;2022-07-01T07:33:42;1.20;;;1.08;;
71869;SDS011;59739;47.696;11.746;2022-07-01T07:36:08;1.40;;;0.95;;
71869;SDS011;59739;47.696;11.746;2022-07-01T07:38:36;1.25;;;1.15;;
71869;SDS011;59739;47.696;11.746;2022-07-01T07:41:03;1.20;;;1.10;;
71869;SDS011;59739;47.696;11.746;2022-07-01T07:43:30;1.00;;;1.00;;
71869;SDS011;59739;47.696;11.746;2022-07-01T07:45:56;1.50;;;1.10;;
71869;SDS011;59739;47.696;11.746;2022-07-01T07:48:22;1.17;;;1.00;;
71869;SDS011;59739;47.696;11.746;2022-07-01T07:50:48;3.08;;;1.00;;
71869;SDS011;59739;47.696;11.746;2022-07-01T07:53:14;1.05;;;0.95;;
71869;SDS011;59739;47.696;11.746;2022-07-01T07:55:40;1.13;;;0.98;;
71869;SDS011;59739;47.696;11.746;2022-07-01T07:58:06;1.30;;;1.20;;
71869;SDS011;59739;47.696;11.746;2022-07-01T08:00:32;1.15;;;1.05;;
71869;SDS011;59739;47.696;11.746;2022-07-01T08:02:59;1.25;;;1.00;;
71869;SDS011;59739;47.696;11.746;2022-07-01T08:05:25;2.15;;;1.33;;
71869;SDS011;59739;47.696;11.746;2022-07-01T08:07:51;1.35;;;1.25;;
71869;SDS011;59739;47.696;11.746;2022-07-01T08:10:17;1.20;;;1.10;;
71869;SDS011;59739;47.696;11.746;2022-07-01T08:12:43;0.90;;;0.88;;
71869;SDS011;59739;47.696;11.746;2022-07-01T08:15:09;0.73;;;0.70;;
71869;SDS011;59739;47.696;11.746;2022-07-01T08:17:35;0.98;;;0.90;;
71869;SDS011;59739;47.696;11.746;2022-07-01T08:20:02;0.75;;;0.75;;
71869;SDS011;59739;47.696;11.746;2022-07-01T08:22:28;0.80;;;0.80;;
71869;SDS011;59739;47.696;11.746;2022-07-01T08:24:55;1.33;;;0.80;;
71869;SDS011;59739;47.696;11.746;2022-07-01T08:27:21;0.95;;;0.95;;
71869;SDS011;59739;47.696;11.746;2022-07-01T08:29:48;1.65;;;0.88;;
71869;SDS011;59739;47.696;11.746;2022-07-01T08:32:14;0.95;;;0.95;;
71869;SDS011;59739;47.696;11.746;2022-07-01T08:34:40;0.90;;;0.90;;
71869;SDS011;59739;47.696;11.746;2022-07-01T08:37:06;2.40;;;1.00;;
71869;SDS011;59739;47.696;11.746;2022-07-01T08:39:32;0.88;;;0.80;;
71869;SDS011;59739;47.696;11.746;2022-07-01T08:41:58;1.20;;;1.10;;
71869;SDS011;59739;47.696;11.746;2022-07-01T08:44:24;1.90;;;1.10;;
71869;SDS011;59739;47.696;11.746;2022-07-01T08:46:51;0.50;;;0.40;;
71869;SDS011;59739;47.696;11.746;2022-07-01T08:49:17;0.68;;;0.30;;
71869;SDS011;59739;47.696;11.746;2022-07-01T08:51:43;0.17;;;0.10;;
71869;SDS011;59739;47.696;11.746;2022-07-01T08:54:09;0.55;;;0.10;;
71869;SDS011;59739;47.696;11.746;2022-07-01T08:56:35;0.10;;;0.10;;
71869;SDS011;59739;47.696;11.746;2022-07-01T08:59:08;0.08;;;0.08;;
71869;SDS011;59739;47.696;11.746;2022-07-01T09:01:36;0.10;;;0.10;;
71869;SDS011;59739;47.696;11.746;2022-07-01T09:04:12;0.13;;;0.10;;
71869;SDS011;59739;47.696;11.746;2022-07-01T09:06:40;0.00;;;0.00;;
71869;SDS011;59739;47.696;11.746;2022-07-01T09:09:12;0.08;;;0.00;;
71869;SDS011;59739;47.696;11.746;2022-07-01T09:11:49;0.10;;;0.10;;
71869;SDS011;59739;47.696;11.746;2022-07-01T09:14:25;0.55;;;0.20;;
71869;SDS011;59739;47.696;11.746;2022-07-01T09:16:54;0.40;;;0.20;;
71869;SDS011;59739;47.696;11.746;2022-07-01T09:19:23;0.20;;;0.17;;
71869;SDS011;59739;47.696;11.746;2022-07-01T09:21:54;1.00;;;0.20;;
71869;SDS011;59739;47.696;11.746;2022-07-01T09:24:26;0.10;;;0.10;;
71869;SDS011;59739;47.696;11.746;2022-07-01T09:29:34;0.10;;;0.10;;
71869;SDS011;59739;47.696;11.746;2022-07-01T09:32:07;0.30;;;0.10;;
71869;SDS011;59739;47.696;11.746;2022-07-01T09:34:36;0.08;;;0.08;;
71869;SDS011;59739;47.696;11.746;2022-07-01T09:37:17;0.90;;;0.10;;
71869;SDS011;59739;47.696;11.746;2022-07-01T09:39:49;0.20;;;0.15;;
71869;SDS011;59739;47.696;11.746;2022-07-01T09:42:17;0.25;;;0.10;;
71869;SDS011;59739;47.696;11.746;2022-07-01T09:44:57;0.10;;;0.10;;
71869;SDS011;59739;47.696;11.746;2022-07-01T09:47:25;0.10;;;0.10;;
71869;SDS011;59739;47.696;11.746;2022-07-01T09:49:53;0.85;;;0.10;;
71869;SDS011;59739;47.696;11.746;2022-07-01T09:52:20;0.20;;;0.00;;
71869;SDS011;59739;47.696;11.746;2022-07-01T09:54:47;0.10;;;0.10;;
71869;SDS011;59739;47.696;11.746;2022-07-01T09:57:15;0.13;;;0.10;;
71869;SDS011;59739;47.696;11.746;2022-07-01T09:59:42;0.22;;;0.10;;
71869;SDS011;59739;47.696;11.746;2022-07-01T10:02:09;0.03;;;0.03;;
71869;SDS011;59739;47.696;11.746;2022-07-01T10:04:36;0.13;;;0.10;;
71869;SDS011;59739;47.696;11.746;2022-07-01T10:12:33;0.10;;;0.10;;
71869;SDS011;59739;47.696;11.746;2022-07-01T10:15:07;0.10;;;0.10;;
71869;SDS011;59739;47.696;11.746;2022-07-01T10:17:36;0.10;;;0.10;;
71869;SDS011;59739;47.696;11.746;2022-07-01T10:22:40;0.10;;;0.10;;
71869;SDS011;59739;47.696;11.746;2022-07-01T10:33:39;0.20;;;0.10;;
71869;SDS011;59739;47.696;11.746;2022-07-01T10:41:53;0.30;;;0.10;;
71869;SDS011;59739;47.696;11.746;2022-07-01T10:44:26;0.10;;;0.10;;
71869;SDS011;59739;47.696;11.746;2022-07-01T10:47:03;0.10;;;0.10;;
71869;SDS011;59739;47.696;11.746;2022-07-01T10:52:07;0.20;;;0.10;;
71869;SDS011;59739;47.696;11.746;2022-07-01T10:57:27;0.38;;;0.10;;
71869;SDS011;59739;47.696;11.746;2022-07-01T11:04:58;0.10;;;0.10;;
71869;SDS011;59739;47.696;11.746;2022-07-01T11:07:36;0.85;;;0.08;;
71869;SDS011;59739;47.696;11.746;2022-07-01T11:10:06;0.10;;;0.10;;
71869;SDS011;59739;47.696;11.746;2022-07-01T11:12:34;1.80;;;0.82;;
71869;SDS011;59739;47.696;11.746;2022-07-01T11:15:01;0.40;;;0.20;;
71869;SDS011;59739;47.696;11.746;2022-07-01T11:17:31;0.00;;;0.00;;
71869;SDS011;59739;47.696;11.746;2022-07-01T11:19:58;0.05;;;0.03;;
71869;SDS011;59739;47.696;11.746;2022-07-01T11:22:33;0.10;;;0.03;;
71869;SDS011;59739;47.696;11.746;2022-07-01T11:25:04;0.00;;;0.00;;
71869;SDS011;59739;47.696;11.746;2022-07-01T11:27:33;0.20;;;0.20;;
71869;SDS011;59739;47.696;11.746;2022-07-01T11:30:07;0.30;;;0.10;;
71869;SDS011;59739;47.696;11.746;2022-07-01T11:32:38;0.10;;;0.00;;
71869;SDS011;59739;47.696;11.746;2022-07-01T11:35:15;0.30;;;0.20;;
71869;SDS011;59739;47.696;11.746;2022-07-01T11:38:10;0.50;;;0.10;;
71869;SDS011;59739;47.696;11.746;2022-07-01T11:41:03;0.20;;;0.15;;
71869;SDS011;59739;47.696;11.746;2022-07-01T11:43:37;1.70;;;0.20;;
71869;SDS011;59739;47.696;11.746;2022-07-01T11:46:05;0.17;;;0.15;;
71869;SDS011;59739;47.696;11.746;2022-07-01T11:51:17;0.20;;;0.10;;
71869;SDS011;59739;47.696;11.746;2022-07-01T11:53:49;0.10;;;0.10;;
71869;SDS011;59739;47.696;11.746;2022-07-01T11:56:31;0.20;;;0.10;;
71869;SDS011;59739;47.696;11.746;2022-07-01T11:59:04;0.52;;;0.10;;
71869;SDS011;59739;47.696;11.746;2022-07-01T12:01:31;0.30;;;0.28;;
71869;SDS011;59739;47.696;11.746;2022-07-01T12:04:00;0.95;;;0.10;;
71869;SDS011;59739;47.696;11.746;2022-07-01T12:06:28;0.47;;;0.20;;
71869;SDS011;59739;47.696;11.746;2022-07-01T12:08:56;0.20;;;0.20;;
71869;SDS011;59739;47.696;11.746;2022-07-01T12:11:23;0.43;;;0.43;;
71869;SDS011;59739;47.696;11.746;2022-07-01T12:13:51;0.50;;;0.20;;
71869;SDS011;59739;47.696;11.746;2022-07-01T12:16:18;0.20;;;0.20;;
71869;SDS011;59739;47.696;11.746;2022-07-01T12:19:18;0.20;;;0.20;;
71869;SDS011;59739;47.696;11.746;2022-07-01T12:21:53;0.10;;;0.10;;
71869;SDS011;59739;47.696;11.746;2022-07-01T12:24:24;0.20;;;0.20;;
71869;SDS011;59739;47.696;11.746;2022-07-01T12:29:31;0.20;;;0.20;;
71869;SDS011;59739;47.696;11.746;2022-07-01T12:32:25;0.20;;;0.20;;
71869;SDS011;59739;47.696;11.746;2022-07-01T12:34:54;0.30;;;0.30;;
71869;SDS011;59739;47.696;11.746;2022-07-01T12:37:32;1.48;;;0.20;;
71869;SDS011;59739;47.696;11.746;2022-07-01T12:42:36;0.45;;;0.30;;
71869;SDS011;59739;47.696;11.746;2022-07-01T12:45:16;0.40;;;0.30;;
71869;SDS011;59739;47.696;11.746;2022-07-01T12:47:48;0.93;;;0.40;;
71869;SDS011;59739;47.696;11.746;2022-07-01T12:53:03;1.23;;;0.30;;
71869;SDS011;59739;47.696;11.746;2022-07-01T12:58:06;1.10;;;0.50;;
71869;SDS011;59739;47.696;11.746;2022-07-01T13:00:42;1.10;;;0.50;;
71869;SDS011;59739;47.696;11.746;2022-07-01T13:05:43;2.60;;;1.05;;
71869;SDS011;59739;47.696;11.746;2022-07-01T13:08:09;1.80;;;0.75;;
71869;SDS011;59739;47.696;11.746;2022-07-01T13:10:35;1.50;;;1.00;;
71869;SDS011;59739;47.696;11.746;2022-07-01T13:13:02;1.33;;;0.50;;
71869;SDS011;59739;47.696;11.746;2022-07-01T13:15:29;1.02;;;0.60;;
71869;SDS011;59739;47.696;11.746;2022-07-01T13:17:55;1.40;;;0.52;;
71869;SDS011;59739;47.696;11.746;2022-07-01T13:20:21;0.63;;;0.47;;
71869;SDS011;59739;47.696;11.746;2022-07-01T13:22:48;0.50;;;0.40;;
71869;SDS011;59739;47.696;11.746;2022-07-01T13:25:14;1.02;;;0.50;;
71869;SDS011;59739;47.696;11.746;2022-07-01T13:27:40;0.80;;;0.47;;
71869;SDS011;59739;47.696;11.746;2022-07-01T13:30:08;0.52;;;0.40;;
71869;SDS011;59739;47.696;11.746;2022-07-01T13:32:37;0.43;;;0.30;;
71869;SDS011;59739;47.696;11.746;2022-07-01T13:35:07;1.05;;;0.50;;
71869;SDS011;59739;47.696;11.746;2022-07-01T13:37:34;1.40;;;0.40;;
71869;SDS011;59739;47.696;11.746;2022-07-01T13:40:01;0.22;;;0.20;;
71869;SDS011;59739;47.696;11.746;2022-07-01T13:42:28;0.40;;;0.40;;
71869;SDS011;59739;47.696;11.746;2022-07-01T13:44:54;0.85;;;0.50;;
71869;SDS011;59739;47.696;11.746;2022-07-01T13:47:20;0.43;;;0.30;;
71869;SDS011;59739;47.696;11.746;2022-07-01T13:49:46;1.75;;;0.40;;
71869;SDS011;59739;47.696;11.746;2022-07-01T13:52:12;1.60;;;0.60;;
71869;SDS011;59739;47.696;11.746;2022-07-01T13:54:38;0.40;;;0.40;;
71869;SDS011;59739;47.696;11.746;2022-07-01T13:57:04;0.82;;;0.40;;
71869;SDS011;59739;47.696;11.746;2022-07-01T13:59:31;0.90;;;0.40;;
71869;SDS011;59739;47.696;11.746;2022-07-01T14:01:57;2.70;;;0.60;;
71869;SDS011;59739;47.696;11.746;2022-07-01T14:04:23;3.75;;;3.35;;
71869;SDS011;59739;47.696;11.746;2022-07-01T14:06:49;2.88;;;2.00;;
71869;SDS011;59739;47.696;11.746;2022-07-01T14:09:15;2.78;;;0.65;;
71869;SDS011;59739;47.696;11.746;2022-07-01T14:11:41;1.05;;;0.60;;
71869;SDS011;59739;47.696;11.746;2022-07-01T14:14:07;1.55;;;0.77;;
71869;SDS011;59739;47.696;11.746;2022-07-01T14:16:33;0.70;;;0.70;;
71869;SDS011;59739;47.696;11.746;2022-07-01T14:18:59;0.65;;;0.60;;
71869;SDS011;59739;47.696;11.746;2022-07-01T14:21:25;1.27;;;0.70;;
71869;SDS011;59739;47.696;11.746;2022-07-01T14:23:53;1.33;;;0.65;;
71869;SDS011;59739;47.696;11.746;2022-07-01T14:26:19;0.90;;;0.60;;
71869;SDS011;59739;47.696;11.746;2022-07-01T14:28:45;2.50;;;1.80;;
71869;SDS011;59739;47.696;11.746;2022-07-01T14:31:11;4.50;;;3.25;;
71869;SDS011;59739;47.696;11.746;2022-07-01T14:33:37;1.00;;;0.90;;
71869;SDS011;59739;47.696;11.746;2022-07-01T14:36:03;0.73;;;0.73;;
71869;SDS011;59739;47.696;11.746;2022-07-01T14:38:29;1.75;;;0.80;;
71869;SDS011;59739;47.696;11.746;2022-07-01T14:40:55;1.42;;;1.20;;
71869;SDS011;59739;47.696;11.746;2022-07-01T14:43:21;0.70;;;0.70;;
71869;SDS011;59739;47.696;11.746;2022-07-01T14:45:47;1.23;;;0.68;;
71869;SDS011;59739;47.696;11.746;2022-07-01T14:48:13;1.48;;;0.80;;
71869;SDS011;59739;47.696;11.746;2022-07-01T14:50:40;1.15;;;0.70;;
71869;SDS011;59739;47.696;11.746;2022-07-01T14:53:06;1.30;;;0.70;;
71869;SDS011;59739;47.696;11.746;2022-07-01T14:55:35;4.50;;;3.72;;
71869;SDS011;59739;47.696;11.746;2022-07-01T14:58:02;1.00;;;0.90;;
71869;SDS011;59739;47.696;11.746;2022-07-01T15:00:28;1.00;;;0.88;;
71869;SDS011;59739;47.696;11.746;2022-07-01T15:02:54;1.40;;;0.90;;
71869;SDS011;59739;47.696;11.746;2022-07-01T15:05:24;1.30;;;0.60;;
71869;SDS011;59739;47.696;11.746;2022-07-01T15:07:50;0.70;;;0.50;;
71869;SDS011;59739;47.696;11.746;2022-07-01T15:10:16;0.75;;;0.63;;
71869;SDS011;59739;47.696;11.746;2022-07-01T15:12:42;0.63;;;0.57;;
71869;SDS011;59739;47.696;11.746;2022-07-01T15:15:08;0.70;;;0.50;;
71869;SDS011;59739;47.696;11.746;2022-07-01T15:17:40;2.17;;;0.70;;
71869;SDS011;59739;47.696;11.746;2022-07-01T15:20:09;2.33;;;1.27;;
71869;SDS011;59739;47.696;11.746;2022-07-01T15:22:36;1.25;;;0.52;;
71869;SDS011;59739;47.696;11.746;2022-07-01T15:25:03;4.07;;;1.08;;
71869;SDS011;59739;47.696;11.746;2022-07-01T15:27:29;1.33;;;1.00;;